首页
METAR-TAF:

METAR-TAF

机场 :

赫维什-巴拉顿国际机场

黑維茲, 匈牙利

纬度: 46-41-11N, 经度: 017-09-33E, 海拔: 124米

当前天气观测

该预报发布于46分钟前的12:45 UTC
风速3节,风向多变
温度 26°C
湿度 61%
气压 1016 hPa
能见度10公里或以上
少量云层高于3800英尺

METAR: LHSM 181245Z AUTO VRB03KT 9999 FEW038 26/18 Q1016 NOSIG

时间: 15:31 (13:31 UTC)

预报

该预报发布于2小时和16分钟前的11:15 UTC
预报有效从18日的 12点(UTC)到 18日的 21点(UTC)
风速5节,风向东转东北
能见度10公里或以上
1500米以下无云,无积雨云
短暂存在
从 18日的 12点(UTC)到 18日的 18点(UTC)
风速20节,风向多变,有时为30节阵风
能見度: 3000
多云层高于3000英尺, 积雨云.
多云层高于6000英尺
阵雨, 雷暴, 雨
几率 30% :
短暂存在
从 18日的 12点(UTC)到 18日的 16点(UTC)
风速30节,风向多变,有时为42节阵风
能見度: 1000
多云层高于1500英尺, 积雨云.
多云层高于4000英尺
雷暴, 大雨

TAF: LHSM 181115Z 1812/1821 06005KT CAVOK TEMPO 1812/1818 VRB20G30KT 3000 SHRA TSRA BKN030CB BKN060 PROB30 TEMPO 1812/1816 VRB30G42KT 1000 +TSRA BKN015CB BKN040

超过4000个机场的气象观测和天气预报(METAR&TAF报告)。

可查询的气象台以黄色和红色小点在地图上表示。

将鼠标移到小点上方,可查看气象台名称。

然后点击查看天气观测和预报。

如需切换地图:点击带黑十字的绿色按钮放大地图;点击带横线的绿色按钮缩小地图;或者点击绿色箭头查看邻近地区的地图。


METAR-TAF: